Time,TemperatureF,DewpointF,PressureIn,WindDirection,WindDirectionDegrees,WindSpeedMPH,WindSpeedGustMPH,Humidity,HourlyPrecipIn,Conditions,Clouds,dailyrainin,SoftwareType,DateUTC
2013-02-10 00:01:00,32.0,23.0,30.11,South,191,2.0,3.0,69,0.00,,,0.00,,2013-02-10 07:01:00,
2013-02-10 00:11:00,32.0,23.0,30.11,South,191,2.0,3.0,69,0.00,,,0.00,,2013-02-10 07:11:00,
2013-02-10 00:21:00,31.0,23.0,30.11,SSW,211,2.0,3.0,71,0.00,,,0.00,,2013-02-10 07:21:00,
2013-02-10 00:31:00,31.0,23.0,30.11,SSW,197,2.0,4.0,72,0.00,,,0.00,,2013-02-10 07:31:00,
2013-02-10 00:41:00,31.0,23.0,30.11,SSW,197,2.0,4.0,72,0.00,,,0.00,,2013-02-10 07:41:00,
2013-02-10 00:52:00,31.0,22.0,30.11,South,191,1.0,3.0,70,0.00,,,0.00,,2013-02-10 07:52:00,
2013-02-10 01:01:00,31.0,23.0,30.11,SW,217,2.0,3.0,71,0.00,,,0.00,,2013-02-10 08:01:00,
2013-02-10 01:11:00,31.0,23.0,30.11,SW,217,2.0,3.0,71,0.00,,,0.00,,2013-02-10 08:11:00,
2013-02-10 01:21:00,31.0,22.0,30.11,SSW,210,2.0,4.0,70,0.00,,,0.00,,2013-02-10 08:21:00,
2013-02-10 01:31:00,31.0,22.0,30.11,SSW,207,2.0,3.0,69,0.00,,,0.00,,2013-02-10 08:31:00,
2013-02-10 01:42:00,31.0,22.0,30.11,SSW,207,2.0,3.0,69,0.00,,,0.00,,2013-02-10 08:42:00,
2013-02-10 01:52:00,31.0,22.0,30.11,SW,231,2.0,5.0,69,0.00,,,0.00,,2013-02-10 08:52:00,
2013-02-10 02:01:00,31.0,22.0,30.11,SSE,155,2.0,4.0,69,0.00,,,0.00,,2013-02-10 09:01:00,
2013-02-10 02:11:00,31.0,22.0,30.11,SSE,155,2.0,4.0,69,0.00,,,0.00,,2013-02-10 09:11:00,
2013-02-10 02:21:00,31.0,22.0,30.11,NE,48,0.0,0.0,68,0.00,,,0.00,,2013-02-10 09:21:00,
2013-02-10 02:31:00,30.0,22.0,30.11,SSE,149,0.0,2.0,72,0.00,,,0.00,,2013-02-10 09:31:00,
2013-02-10 02:41:00,30.0,22.0,30.11,SSE,149,0.0,2.0,72,0.00,,,0.00,,2013-02-10 09:41:00,
2013-02-10 02:51:00,30.0,22.0,30.11,SSE,149,0.0,0.0,71,0.00,,,0.00,,2013-02-10 09:51:00,
2013-02-10 03:01:00,30.0,21.0,30.10,SSE,150,0.0,1.0,70,0.00,,,0.00,,2013-02-10 10:01:00,
2013-02-10 03:11:00,29.0,21.0,30.10,SSE,153,0.0,1.0,72,0.00,,,0.00,,2013-02-10 10:11:00,
2013-02-10 03:21:00,29.0,21.0,30.10,SSE,153,0.0,1.0,72,0.00,,,0.00,,2013-02-10 10:21:00,
2013-02-10 03:31:00,29.0,21.0,30.10,SSE,153,0.0,1.0,72,0.00,,,0.00,,2013-02-10 10:31:00,
2013-02-10 03:41:00,29.0,21.0,30.10,SSE,153,0.0,1.0,72,0.00,,,0.00,,2013-02-10 10:41:00,
2013-02-10 03:51:00,30.0,21.0,30.10,SE,146,1.0,1.0,70,0.00,,,0.00,,2013-02-10 10:51:00,
2013-02-10 04:01:00,29.0,21.0,30.10,SSE,158,1.0,1.0,72,0.00,,,0.00,,2013-02-10 11:01:00,
2013-02-10 04:11:00,29.0,21.0,30.10,SSE,158,1.0,1.0,72,0.00,,,0.00,,2013-02-10 11:11:00,
2013-02-10 04:21:00,27.0,20.0,30.09,South,169,2.0,3.0,76,0.00,,,0.00,,2013-02-10 11:21:00,
2013-02-10 04:31:00,27.0,21.0,30.09,SSW,195,0.0,2.0,78,0.00,,,0.00,,2013-02-10 11:31:00,
2013-02-10 04:41:00,27.0,21.0,30.09,SSW,195,0.0,2.0,78,0.00,,,0.00,,2013-02-10 11:41:00,
2013-02-10 04:52:00,27.0,21.0,30.09,SSW,197,0.0,1.0,79,0.00,,,0.00,,2013-02-10 11:52:00,
2013-02-10 05:01:00,26.0,20.0,30.09,SSW,210,0.0,1.0,79,0.00,,,0.00,,2013-02-10 12:01:00,
2013-02-10 05:12:00,26.0,20.0,30.09,SSW,210,0.0,1.0,79,0.00,,,0.00,,2013-02-10 12:12:00,
2013-02-10 05:21:00,26.0,21.0,30.09,SSW,201,1.0,1.0,80,0.00,,,0.00,,2013-02-10 12:21:00,
2013-02-10 05:31:00,26.0,21.0,30.09,SSW,195,0.0,1.0,80,0.00,,,0.00,,2013-02-10 12:31:00,
2013-02-10 05:41:00,26.0,21.0,30.09,SSW,195,0.0,1.0,80,0.00,,,0.00,,2013-02-10 12:41:00,
2013-02-10 05:52:00,26.0,21.0,30.09,SSW,210,0.0,1.0,81,0.00,,,0.00,,2013-02-10 12:52:00,
2013-02-10 06:02:00,26.0,21.0,30.09,South,177,0.0,1.0,82,0.00,,,0.00,,2013-02-10 13:02:00,
2013-02-10 06:11:00,26.0,21.0,30.09,South,177,0.0,1.0,82,0.00,,,0.00,,2013-02-10 13:11:00,
2013-02-10 06:21:00,26.0,21.0,30.09,South,191,0.0,1.0,81,0.00,,,0.00,,2013-02-10 13:21:00,
2013-02-10 06:31:00,26.0,21.0,30.09,SSE,159,1.0,2.0,81,0.00,,,0.00,,2013-02-10 13:31:00,
2013-02-10 06:41:00,26.0,21.0,30.09,SSE,159,1.0,2.0,81,0.00,,,0.00,,2013-02-10 13:41:00,
2013-02-10 06:51:00,27.0,20.0,30.09,SSE,150,3.0,4.0,76,0.00,,,0.00,,2013-02-10 13:51:00,
2013-02-10 07:01:00,27.0,20.0,30.09,SSE,158,3.0,4.0,75,0.00,,,0.00,,2013-02-10 14:01:00,
2013-02-10 07:11:00,27.0,20.0,30.09,SSE,158,3.0,4.0,75,0.00,,,0.00,,2013-02-10 14:11:00,
2013-02-10 07:21:00,27.0,21.0,30.09,SSE,165,3.0,5.0,77,0.00,,,0.00,,2013-02-10 14:21:00,
2013-02-10 07:31:00,27.0,20.0,30.09,SSE,159,3.0,5.0,76,0.00,,,0.00,,2013-02-10 14:31:00,
2013-02-10 07:41:00,27.0,20.0,30.09,SSE,159,3.0,5.0,76,0.00,,,0.00,,2013-02-10 14:41:00,
2013-02-10 07:52:00,30.0,22.0,30.09,SSE,150,3.0,5.0,71,0.00,,,0.00,,2013-02-10 14:52:00,
2013-02-10 08:01:00,31.0,22.0,30.09,SE,136,0.0,3.0,69,0.00,,,0.00,,2013-02-10 15:01:00,
2013-02-10 08:21:00,31.0,22.0,30.10,NNW,333,2.0,2.0,69,0.00,,,0.00,,2013-02-10 15:21:00,
2013-02-10 08:31:00,31.0,22.0,30.10,North,6,1.0,2.0,69,0.00,,,0.00,,2013-02-10 15:31:00,
2013-02-10 08:41:00,31.0,22.0,30.10,North,6,1.0,2.0,69,0.00,,,0.00,,2013-02-10 15:41:00,
2013-02-10 08:52:00,32.0,23.0,30.10,NNE,30,0.0,1.0,68,0.00,,,0.00,,2013-02-10 15:52:00,
2013-02-10 09:01:00,34.0,23.0,30.10,NNE,30,0.0,1.0,64,0.00,,,0.00,,2013-02-10 16:01:00,
2013-02-10 09:11:00,34.0,25.0,30.10,NW,305,2.0,3.0,68,0.00,,,0.00,,2013-02-10 16:11:00,
2013-02-10 09:21:00,34.0,25.0,30.10,NW,305,2.0,3.0,68,0.00,,,0.00,,2013-02-10 16:21:00,
2013-02-10 09:31:00,34.0,24.0,30.10,NNE,29,1.0,3.0,67,0.00,,,0.00,,2013-02-10 16:31:00,
2013-02-10 09:41:00,36.0,25.0,30.11,ENE,60,2.0,5.0,65,0.00,,,0.00,,2013-02-10 16:41:00,
2013-02-10 09:52:00,36.0,25.0,30.11,ENE,60,2.0,5.0,65,0.00,,,0.00,,2013-02-10 16:52:00,
2013-02-10 10:01:00,37.0,25.0,30.11,East,88,2.0,6.0,61,0.00,,,0.00,,2013-02-10 17:01:00,
2013-02-10 10:11:00,37.0,25.0,30.11,East,88,2.0,6.0,61,0.00,,,0.00,,2013-02-10 17:11:00,
2013-02-10 10:21:00,37.0,24.0,30.11,NW,315,3.0,7.0,59,0.00,,,0.00,,2013-02-10 17:21:00,
2013-02-10 10:31:00,38.0,24.0,30.10,ENE,65,3.0,6.0,57,0.00,,,0.00,,2013-02-10 17:31:00,
2013-02-10 10:41:00,39.0,24.0,30.10,NE,43,4.0,9.0,55,0.00,,,0.00,,2013-02-10 17:41:00,
2013-02-10 10:52:00,39.0,24.0,30.10,NE,43,4.0,9.0,55,0.00,,,0.00,,2013-02-10 17:52:00,
2013-02-10 11:01:00,39.0,23.0,30.10,NNE,33,7.0,9.0,53,0.00,,,0.00,,2013-02-10 18:01:00,
2013-02-10 11:11:00,41.0,24.0,30.09,ESE,121,4.0,12.0,50,0.00,,,0.00,,2013-02-10 18:11:00,
2013-02-10 11:21:00,41.0,24.0,30.09,ESE,121,4.0,12.0,50,0.00,,,0.00,,2013-02-10 18:21:00,
2013-02-10 11:31:00,43.0,23.0,30.09,ENE,69,6.0,10.0,45,0.00,,,0.00,,2013-02-10 18:31:00,
2013-02-10 11:41:00,43.0,23.0,30.09,ENE,69,6.0,10.0,45,0.00,,,0.00,,2013-02-10 18:41:00,
2013-02-10 11:51:00,44.0,22.0,30.08,East,93,5.0,9.0,41,0.00,,,0.00,,2013-02-10 18:51:00,
2013-02-10 12:01:00,44.0,21.0,30.08,NE,44,3.0,8.0,40,0.00,,,0.00,,2013-02-10 19:01:00,
2013-02-10 12:11:00,45.0,20.0,30.08,SE,142,4.0,7.0,36,0.00,,,0.00,,2013-02-10 19:11:00,
2013-02-10 12:21:00,45.0,20.0,30.08,SE,142,4.0,7.0,36,0.00,,,0.00,,2013-02-10 19:21:00,
2013-02-10 12:31:00,46.0,21.0,30.07,ESE,111,2.0,5.0,36,0.00,,,0.00,,2013-02-10 19:31:00,
2013-02-10 12:42:00,47.0,21.0,30.06,NNE,16,6.0,21.0,35,0.00,,,0.00,,2013-02-10 19:42:00,
2013-02-10 12:52:00,47.0,21.0,30.06,NNE,16,6.0,21.0,35,0.00,,,0.00,,2013-02-10 19:52:00,
2013-02-10 13:01:00,46.0,21.0,30.06,WNW,282,4.0,7.0,36,0.00,,,0.00,,2013-02-10 20:01:00,
2013-02-10 13:11:00,46.0,21.0,30.06,WNW,282,4.0,7.0,36,0.00,,,0.00,,2013-02-10 20:11:00,
2013-02-10 13:21:00,46.0,19.0,30.04,WSW,253,3.0,12.0,34,0.00,,,0.00,,2013-02-10 20:21:00,
2013-02-10 13:31:00,47.0,21.0,30.03,NNW,330,1.0,5.0,35,0.00,,,0.00,,2013-02-10 20:31:00,
2013-02-10 13:41:00,48.0,21.0,30.02,West,279,2.0,4.0,34,0.00,,,0.00,,2013-02-10 20:41:00,
2013-02-10 13:52:00,48.0,21.0,30.02,West,279,2.0,4.0,34,0.00,,,0.00,,2013-02-10 20:52:00,
2013-02-10 14:02:00,48.0,20.0,30.02,WSW,238,3.0,9.0,33,0.00,,,0.00,,2013-02-10 21:02:00,
2013-02-10 14:11:00,48.0,20.0,30.02,WSW,238,3.0,9.0,33,0.00,,,0.00,,2013-02-10 21:11:00,
2013-02-10 14:21:00,48.0,20.0,30.01,WSW,257,5.0,10.0,32,0.00,,,0.00,,2013-02-10 21:21:00,
2013-02-10 14:31:00,49.0,20.0,30.01,West,259,3.0,7.0,32,0.00,,,0.00,,2013-02-10 21:31:00,
2013-02-10 14:41:00,49.0,20.0,30.01,West,279,8.0,13.0,31,0.00,,,0.00,,2013-02-10 21:41:00,
2013-02-10 14:52:00,49.0,20.0,30.01,West,279,8.0,13.0,31,0.00,,,0.00,,2013-02-10 21:52:00,
2013-02-10 15:01:00,49.0,20.0,30.01,West,272,10.0,17.0,31,0.00,,,0.00,,2013-02-10 22:01:00,
2013-02-10 15:11:00,49.0,20.0,30.00,West,280,9.0,14.0,31,0.00,,,0.00,,2013-02-10 22:11:00,
2013-02-10 15:21:00,49.0,20.0,30.00,West,280,9.0,14.0,31,0.00,,,0.00,,2013-02-10 22:21:00,
2013-02-10 15:31:00,49.0,18.0,30.01,WSW,255,10.0,15.0,29,0.00,,,0.00,,2013-02-10 22:31:00,
2013-02-10 15:41:00,49.0,20.0,30.01,NW,308,10.0,16.0,31,0.00,,,0.00,,2013-02-10 22:41:00,
2013-02-10 15:52:00,49.0,20.0,30.01,NW,308,10.0,16.0,31,0.00,,,0.00,,2013-02-10 22:52:00,
2013-02-10 16:01:00,49.0,19.0,30.01,West,268,9.0,12.0,30,0.00,,,0.00,,2013-02-10 23:01:00,
2013-02-10 16:11:00,49.0,19.0,30.01,West,268,9.0,12.0,30,0.00,,,0.00,,2013-02-10 23:11:00,
2013-02-10 16:21:00,49.0,17.0,30.01,West,281,9.0,13.0,28,0.00,,,0.00,,2013-02-10 23:21:00,
2013-02-10 16:31:00,49.0,16.0,30.01,West,266,10.0,16.0,27,0.00,,,0.00,,2013-02-10 23:31:00,
2013-02-10 16:41:00,49.0,16.0,30.01,WNW,294,7.0,12.0,27,0.00,,,0.00,,2013-02-10 23:41:00,
2013-02-10 16:52:00,49.0,16.0,30.01,WNW,294,7.0,12.0,27,0.00,,,0.00,,2013-02-10 23:52:00,
2013-02-10 17:01:00,49.0,16.0,30.01,West,264,7.0,12.0,27,0.00,,,0.00,,2013-02-11 00:01:00,
2013-02-10 17:11:00,49.0,16.0,30.01,SSW,200,8.0,15.0,27,0.00,,,0.00,,2013-02-11 00:11:00,
2013-02-10 17:21:00,49.0,16.0,30.01,SSW,200,8.0,15.0,27,0.00,,,0.00,,2013-02-11 00:21:00,
2013-02-10 17:31:00,49.0,17.0,30.01,West,281,8.0,13.0,28,0.00,,,0.00,,2013-02-11 00:31:00,
2013-02-10 17:41:00,48.0,17.0,30.01,WSW,255,6.0,12.0,29,0.00,,,0.00,,2013-02-11 00:41:00,
2013-02-10 17:52:00,48.0,17.0,30.01,WSW,255,6.0,12.0,29,0.00,,,0.00,,2013-02-11 00:52:00,
2013-02-10 18:01:00,48.0,18.0,30.02,SW,224,3.0,10.0,30,0.00,,,0.00,,2013-02-11 01:01:00,
2013-02-10 18:11:00,48.0,18.0,30.02,SW,224,3.0,10.0,30,0.00,,,0.00,,2013-02-11 01:11:00,
2013-02-10 18:21:00,46.0,18.0,30.02,WSW,255,3.0,7.0,32,0.00,,,0.00,,2013-02-11 01:21:00,
2013-02-10 18:31:00,45.0,18.0,30.03,SW,228,1.0,2.0,33,0.00,,,0.00,,2013-02-11 01:31:00,
2013-02-10 18:41:00,43.0,18.0,30.03,ESE,115,1.0,3.0,36,0.00,,,0.00,,2013-02-11 01:41:00,
2013-02-10 18:52:00,43.0,18.0,30.03,ESE,115,1.0,3.0,36,0.00,,,0.00,,2013-02-11 01:52:00,
2013-02-10 19:01:00,43.0,19.0,30.03,SE,142,1.0,4.0,37,0.00,,,0.00,,2013-02-11 02:01:00,
2013-02-10 19:11:00,43.0,19.0,30.03,SE,142,1.0,4.0,37,0.00,,,0.00,,2013-02-11 02:11:00,
2013-02-10 19:21:00,43.0,20.0,30.04,NE,39,2.0,5.0,39,0.00,,,0.00,,2013-02-11 02:21:00,
2013-02-10 19:31:00,43.0,20.0,30.04,SE,128,2.0,4.0,40,0.00,,,0.00,,2013-02-11 02:31:00,
2013-02-10 19:41:00,41.0,20.0,30.05,SSE,147,2.0,3.0,42,0.00,,,0.00,,2013-02-11 02:41:00,
2013-02-10 19:52:00,41.0,20.0,30.05,SSE,147,2.0,3.0,42,0.00,,,0.00,,2013-02-11 02:52:00,
2013-02-10 20:01:00,41.0,21.0,30.05,SSE,155,1.0,2.0,44,0.00,,,0.00,,2013-02-11 03:01:00,
2013-02-10 20:11:00,39.0,21.0,30.05,South,181,2.0,3.0,48,0.00,,,0.00,,2013-02-11 03:11:00,
2013-02-10 20:21:00,39.0,21.0,30.05,South,181,2.0,3.0,48,0.00,,,0.00,,2013-02-11 03:21:00,
2013-02-10 20:31:00,39.0,21.0,30.06,SW,231,2.0,4.0,49,0.00,,,0.00,,2013-02-11 03:31:00,
2013-02-10 20:41:00,40.0,21.0,30.06,SSW,200,3.0,5.0,47,0.00,,,0.00,,2013-02-11 03:41:00,
2013-02-10 20:52:00,40.0,21.0,30.06,SSW,200,3.0,5.0,47,0.00,,,0.00,,2013-02-11 03:52:00,
2013-02-10 21:01:00,39.0,21.0,30.06,South,187,4.0,5.0,48,0.00,,,0.00,,2013-02-11 04:01:00,
2013-02-10 21:11:00,39.0,21.0,30.06,South,187,4.0,5.0,48,0.00,,,0.00,,2013-02-11 04:11:00,
2013-02-10 21:21:00,38.0,21.0,30.07,SSW,212,1.0,3.0,50,0.00,,,0.00,,2013-02-11 04:21:00,
2013-02-10 21:31:00,38.0,21.0,30.07,SSW,207,2.0,3.0,50,0.00,,,0.00,,2013-02-11 04:31:00,
2013-02-10 21:41:00,37.0,20.0,30.07,SSW,204,1.0,3.0,50,0.00,,,0.00,,2013-02-11 04:41:00,
2013-02-10 21:52:00,37.0,20.0,30.07,SSW,204,1.0,3.0,50,0.00,,,0.00,,2013-02-11 04:52:00,
2013-02-10 22:01:00,36.0,19.0,30.08,South,186,2.0,3.0,49,0.00,,,0.00,,2013-02-11 05:01:00,
2013-02-10 22:11:00,36.0,19.0,30.08,SSW,207,1.0,2.0,49,0.00,,,0.00,,2013-02-11 05:11:00,
2013-02-10 22:22:00,36.0,19.0,30.08,SSW,207,1.0,2.0,49,0.00,,,0.00,,2013-02-11 05:22:00,
2013-02-10 22:31:00,36.0,18.0,30.08,South,187,1.0,3.0,48,0.00,,,0.00,,2013-02-11 05:31:00,
2013-02-10 22:41:00,35.0,18.0,30.08,SSW,204,1.0,4.0,50,0.00,,,0.00,,2013-02-11 05:41:00,
2013-02-10 22:52:00,35.0,18.0,30.08,SSW,204,1.0,4.0,50,0.00,,,0.00,,2013-02-11 05:52:00,
2013-02-10 23:01:00,35.0,18.0,30.08,SW,226,1.0,3.0,50,0.00,,,0.00,,2013-02-11 06:01:00,
2013-02-10 23:11:00,35.0,18.0,30.08,SW,226,1.0,3.0,50,0.00,,,0.00,,2013-02-11 06:11:00,
2013-02-10 23:21:00,36.0,17.0,30.07,SW,232,3.0,5.0,45,0.00,,,0.00,,2013-02-11 06:21:00,
2013-02-10 23:31:00,36.0,16.0,30.07,SW,229,4.0,5.0,44,0.00,,,0.00,,2013-02-11 06:31:00,
2013-02-10 23:41:00,37.0,16.0,30.07,SW,232,3.0,6.0,42,0.00,,,0.00,,2013-02-11 06:41:00,
2013-02-10 23:52:00,37.0,16.0,30.07,SW,232,3.0,6.0,42,0.00,,,0.00,,2013-02-11 06:52:00,